Time;durP1;ratioP1;P1;durP2;ratioP2;P2;SDS_P1;SDS_P2;PMS_P1;PMS_P2;Temp;Humidity;BMP_temperature;BMP_pressure;BME280_temperature;BME280_humidity;BME280_pressure;Samples;Min_cycle;Max_cycle;Signal;HPM_P1;HPM_P2
2022/03/31 00:00:56;;;;;;;13.17;11.50;;;;;;;13.56;51.34;97034.78;6893746;28;20195;-79
2022/03/31 00:04:17;;;;;;;14.10;11.37;;;;;;;13.49;51.15;97033.41;6892382;28;20211;-79
2022/03/31 00:07:48;;;;;;;15.33;12.13;;;;;;;13.43;51.73;97029.88;6891488;28;20239;-79
2022/03/31 00:11:11;;;;;;;12.90;11.10;;;;;;;13.72;51.05;97024.78;6892293;28;20225;-79
2022/03/31 00:14:34;;;;;;;13.47;11.80;;;;;;;13.55;50.89;97010.66;6892354;28;20271;-80
2022/03/31 00:17:56;;;;;;;14.80;11.70;;;;;;;13.54;51.56;97020.69;6894081;28;20238;-80
2022/03/31 00:21:17;;;;;;;14.83;11.63;;;;;;;13.07;52.20;97019.16;6894226;28;20250;-80
2022/03/31 00:24:39;;;;;;;15.40;11.93;;;;;;;13.20;52.28;97027.63;6894217;28;20345;-80
2022/03/31 00:28:03;;;;;;;15.27;11.47;;;;;;;13.20;52.18;97011.38;6892275;28;20788;-80
2022/03/31 00:31:26;;;;;;;14.70;12.37;;;;;;;13.21;53.03;97010.28;6894019;28;20203;-79
2022/03/31 00:34:47;;;;;;;14.40;12.07;;;;;;;13.12;52.22;97002.97;6907053;28;20700;-80
2022/03/31 00:38:10;;;;;;;16.20;12.27;;;;;;;12.28;53.49;96971.66;6891101;28;20232;-80
2022/03/31 00:41:35;;;;;;;15.70;11.90;;;;;;;11.84;53.80;96952.16;6892153;28;20209;-80
2022/03/31 00:44:57;;;;;;;14.17;11.67;;;;;;;12.89;53.00;96990.66;6894605;28;20210;-80
2022/03/31 00:48:20;;;;;;;13.03;10.83;;;;;;;13.13;51.54;96937.78;6892894;28;20320;-81
2022/03/31 00:51:42;;;;;;;13.40;12.00;;;;;;;13.41;50.57;96956.25;6893144;28;20215;-80
2022/03/31 00:55:04;;;;;;;13.83;11.97;;;;;;;12.61;53.14;96965.88;6893794;28;20230;-80
2022/03/31 00:58:26;;;;;;;14.80;11.27;;;;;;;13.07;51.49;96965.88;6892348;28;20328;-80
2022/03/31 01:01:48;;;;;;;13.30;11.90;;;;;;;13.05;50.95;96970.72;6891650;28;20332;-79
2022/03/31 01:05:14;;;;;;;13.50;11.67;;;;;;;13.25;51.50;96959.16;6890374;28;20297;-80
2022/03/31 01:08:36;;;;;;;14.30;11.50;;;;;;;13.24;50.84;96963.78;6889605;28;20231;-80
2022/03/31 01:11:58;;;;;;;13.33;11.03;;;;;;;13.36;51.03;96952.69;6890958;28;20234;-79
2022/03/31 01:15:21;;;;;;;13.70;11.47;;;;;;;13.10;50.97;96951.81;6889688;28;20225;-80
2022/03/31 01:18:42;;;;;;;15.97;11.90;;;;;;;13.30;51.00;96948.34;6888938;28;20690;-79
2022/03/31 01:22:05;;;;;;;16.37;12.97;;;;;;;13.33;50.94;96954.03;6889846;28;20708;-80
2022/03/31 01:25:28;;;;;;;15.27;11.83;;;;;;;13.10;51.61;96943.69;6889636;28;20297;-79
2022/03/31 01:28:51;;;;;;;14.33;12.50;;;;;;;13.09;51.66;96930.47;6888961;28;20317;-79
2022/03/31 01:32:12;;;;;;;14.67;11.93;;;;;;;12.79;52.49;96936.53;6892048;28;20291;-79
2022/03/31 01:35:34;;;;;;;15.17;11.53;;;;;;;13.00;52.01;96932.03;6892283;28;20234;-79
2022/03/31 01:38:56;;;;;;;15.47;12.97;;;;;;;13.07;51.77;96928.00;6889804;28;20272;-80
2022/03/31 01:42:19;;;;;;;14.37;12.00;;;;;;;12.82;51.28;96929.78;6891544;28;20259;-80
2022/03/31 01:45:40;;;;;;;14.80;12.30;;;;;;;12.66;52.31;96923.50;6890747;28;20683;-80
2022/03/31 01:49:02;;;;;;;16.50;13.47;;;;;;;12.74;52.41;96919.47;6891035;28;20709;-79
2022/03/31 01:52:23;;;;;;;19.67;13.03;;;;;;;11.30;55.65;96914.66;6891495;28;20655;-79
2022/03/31 01:55:45;;;;;;;16.10;13.07;;;;;;;11.48;55.45;96912.41;6891228;28;20296;-79
2022/03/31 01:59:08;;;;;;;14.97;12.47;;;;;;;11.91;55.16;96919.50;6890428;28;20289;-79
2022/03/31 02:02:31;;;;;;;16.47;13.60;;;;;;;12.05;55.28;96909.91;6891285;28;20260;-80
2022/03/31 02:05:52;;;;;;;17.33;13.30;;;;;;;12.32;54.31;96903.31;6891879;28;20209;-80
2022/03/31 02:09:14;;;;;;;17.83;13.07;;;;;;;12.51;53.93;96896.38;6892194;28;20233;-80
2022/03/31 02:12:35;;;;;;;17.57;13.73;;;;;;;12.48;53.68;96902.31;6891855;28;20306;-80
2022/03/31 02:15:58;;;;;;;16.53;13.27;;;;;;;12.92;52.58;96894.66;6891647;28;20237;-80
2022/03/31 02:19:21;;;;;;;16.83;12.77;;;;;;;13.00;52.76;96894.16;6889111;28;20225;-79
2022/03/31 02:22:42;;;;;;;16.00;13.00;;;;;;;12.57;52.88;96892.63;6891008;28;20307;-80
2022/03/31 02:26:04;;;;;;;16.27;13.27;;;;;;;11.85;54.66;96897.06;6891389;28;20235;-80
2022/03/31 02:29:25;;;;;;;20.30;14.00;;;;;;;11.78;55.53;96887.56;6892125;28;20317;-79
2022/03/31 02:32:49;;;;;;;15.90;12.93;;;;;;;12.07;54.83;96883.44;6890934;28;20292;-80
2022/03/31 02:36:11;;;;;;;14.77;12.77;;;;;;;12.12;54.86;96878.06;6890679;28;20790;-79
2022/03/31 02:39:32;;;;;;;17.63;13.80;;;;;;;12.19;54.66;96875.94;6890016;28;20229;-80
2022/03/31 02:42:54;;;;;;;15.87;12.73;;;;;;;12.12;54.44;96878.91;6889551;28;20240;-79
2022/03/31 02:46:16;;;;;;;15.60;13.67;;;;;;;12.38;53.77;96872.53;6889154;28;20209;-79
2022/03/31 02:49:40;;;;;;;16.67;13.40;;;;;;;12.45;54.00;96875.81;6891315;28;20291;-79
2022/03/31 02:56:41;;;;;;;19.67;14.57;;;;;;;12.13;54.40;96863.50;6895390;28;20217;-79
2022/03/31 03:00:05;;;;;;;17.03;14.53;;;;;;;12.51;53.71;96857.75;6893342;28;20225;-79
2022/03/31 03:03:28;;;;;;;19.10;13.97;;;;;;;11.36;54.25;96749.06;6893091;28;20204;-79
2022/03/31 03:06:51;;;;;;;19.27;14.23;;;;;;;11.58;55.84;96853.13;6893756;28;20215;-79
2022/03/31 03:10:14;;;;;;;24.63;17.27;;;;;;;11.90;55.54;96856.59;6896705;28;20307;-80
2022/03/31 03:13:36;;;;;;;17.43;14.30;;;;;;;11.51;55.77;96863.28;6896808;28;20273;-80
2022/03/31 03:16:59;;;;;;;15.70;14.00;;;;;;;12.40;53.53;96856.88;6895408;28;20233;-78
2022/03/31 03:20:24;;;;;;;16.57;14.33;;;;;;;12.14;53.98;96863.22;6894747;28;20279;-79
2022/03/31 03:23:48;;;;;;;20.10;14.80;;;;;;;11.92;54.61;96851.75;6895811;28;20210;-79
2022/03/31 03:27:09;;;;;;;15.80;13.20;;;;;;;11.39;54.88;96857.25;6895232;28;20202;-79
2022/03/31 03:30:31;;;;;;;14.97;13.47;;;;;;;11.64;54.79;96862.88;6895804;28;20240;-80
2022/03/31 03:33:53;;;;;;;18.00;13.60;;;;;;;11.90;54.46;96853.91;6895908;28;20292;-79
2022/03/31 03:37:14;;;;;;;16.93;14.10;;;;;;;11.85;54.16;96856.56;6894037;28;20236;-79
2022/03/31 03:40:37;;;;;;;18.97;14.70;;;;;;;10.51;56.61;96851.53;6894852;28;20212;-79
2022/03/31 03:43:59;;;;;;;17.33;13.93;;;;;;;11.01;56.26;96843.16;6894284;28;20204;-78
2022/03/31 03:47:21;;;;;;;28.03;18.30;;;;;;;11.14;56.39;96840.03;6895355;28;20206;-79
2022/03/31 03:50:42;;;;;;;17.83;14.27;;;;;;;11.67;54.74;96845.34;6899303;28;20219;-80
2022/03/31 03:54:04;;;;;;;18.47;14.20;;;;;;;11.24;56.34;96840.97;6899859;28;20353;-79
2022/03/31 03:57:27;;;;;;;18.37;14.23;;;;;;;11.45;54.54;96833.84;6891646;28;20232;-79
2022/03/31 04:00:49;;;;;;;17.07;14.20;;;;;;;11.30;55.67;96823.75;6889957;28;20288;-79
2022/03/31 04:04:12;;;;;;;16.50;14.20;;;;;;;11.30;54.56;96804.03;6890295;28;20209;-79
2022/03/31 04:07:34;;;;;;;19.23;15.60;;;;;;;11.81;54.07;96830.34;6892910;28;20909;-80
2022/03/31 04:10:55;;;;;;;17.57;14.70;;;;;;;11.25;55.44;96828.28;6893104;28;20205;-79
2022/03/31 04:14:18;;;;;;;17.50;15.40;;;;;;;11.65;54.62;96826.75;6892099;28;20706;-79
2022/03/31 04:17:40;;;;;;;17.53;13.60;;;;;;;12.08;53.46;96826.47;6891591;28;20237;-80
2022/03/31 04:21:02;;;;;;;18.20;14.43;;;;;;;11.98;52.41;96820.19;6893227;28;20348;-79
2022/03/31 04:24:24;;;;;;;18.80;14.53;;;;;;;11.34;54.73;96824.06;6893579;28;20213;-79
2022/03/31 04:27:45;;;;;;;17.93;15.30;;;;;;;10.89;56.22;96826.31;6892708;28;20312;-79
2022/03/31 04:31:08;;;;;;;17.87;14.60;;;;;;;11.38;55.57;96825.97;6893003;28;20212;-80
2022/03/31 04:34:30;;;;;;;15.90;14.20;;;;;;;11.34;55.31;96832.13;6893550;28;20247;-80
2022/03/31 04:37:51;;;;;;;17.53;14.57;;;;;;;11.50;55.40;96821.19;6892878;28;20264;-80
2022/03/31 04:41:14;;;;;;;17.37;14.67;;;;;;;11.51;55.04;96813.94;6903542;28;20669;-80
2022/03/31 04:44:37;;;;;;;19.30;15.20;;;;;;;11.68;54.85;96809.22;6920137;28;20428;-80
2022/03/31 04:48:00;;;;;;;17.00;15.00;;;;;;;11.77;54.76;96813.03;6919431;28;20697;-80
2022/03/31 04:51:22;;;;;;;18.90;15.83;;;;;;;11.58;54.71;96819.91;6919871;28;20232;-80
2022/03/31 04:54:44;;;;;;;17.07;14.33;;;;;;;11.62;53.97;96819.16;6919171;28;20215;-80
2022/03/31 04:58:06;;;;;;;16.70;14.23;;;;;;;11.81;53.67;96819.56;6917455;28;20287;-79
2022/03/31 05:01:28;;;;;;;18.30;15.53;;;;;;;11.75;53.99;96820.59;6920127;28;20180;-80
2022/03/31 05:04:51;;;;;;;17.87;15.47;;;;;;;11.69;53.95;96821.66;6921882;28;20208;-79
2022/03/31 05:08:12;;;;;;;18.40;15.40;;;;;;;11.76;53.87;96822.22;6923272;28;20226;-81
2022/03/31 05:11:34;;;;;;;20.33;15.87;;;;;;;11.95;53.53;96813.44;6918504;28;20239;-81
2022/03/31 05:14:56;;;;;;;17.97;14.20;;;;;;;11.87;53.31;96810.41;6924588;28;20259;-80
2022/03/31 05:18:17;;;;;;;17.07;14.10;;;;;;;11.98;53.41;96822.91;6933469;28;20257;-81
2022/03/31 05:21:40;;;;;;;18.13;14.67;;;;;;;12.30;52.40;96820.88;6925693;28;20317;-81
2022/03/31 05:25:04;;;;;;;17.40;14.60;;;;;;;12.20;52.36;96802.75;6947973;28;20236;-80
2022/03/31 05:28:26;;;;;;;15.90;13.73;;;;;;;12.10;52.77;96824.31;6947456;28;20714;-80
2022/03/31 05:31:48;;;;;;;18.37;14.97;;;;;;;11.67;53.79;96816.50;6948314;28;20554;-80
2022/03/31 05:35:13;;;;;;;18.30;15.17;;;;;;;11.42;53.92;96816.28;6947497;28;20285;-80
2022/03/31 05:38:36;;;;;;;17.23;14.60;;;;;;;11.98;53.41;96814.81;6947207;28;20601;-81
2022/03/31 05:41:58;;;;;;;18.53;14.30;;;;;;;12.21;51.86;96806.28;6947226;28;20208;-81
2022/03/31 05:45:19;;;;;;;15.80;13.67;;;;;;;11.94;52.28;96809.13;6947147;28;20269;-80
2022/03/31 05:48:41;;;;;;;20.97;15.87;;;;;;;11.32;54.76;96780.31;6927664;28;20837;-80
2022/03/31 05:52:03;;;;;;;18.97;15.37;;;;;;;12.00;53.66;96818.88;6920901;28;20211;-82
2022/03/31 05:55:26;;;;;;;16.97;15.17;;;;;;;12.12;53.04;96816.78;6918979;28;20219;-80
2022/03/31 05:58:49;;;;;;;16.63;14.23;;;;;;;11.74;53.10;96805.47;6916644;28;20238;-82
2022/03/31 06:02:11;;;;;;;17.03;14.93;;;;;;;11.65;53.87;96802.47;6920981;28;20189;-84
2022/03/31 06:05:48;;;;;;;17.83;15.73;;;;;;;11.70;54.47;96813.25;6920533;28;20230;-83
2022/03/31 06:09:09;;;;;;;18.77;15.70;;;;;;;11.34;54.73;96815.97;6888501;28;20240;-84
2022/03/31 06:12:32;;;;;;;18.93;15.73;;;;;;;11.03;55.06;96763.66;6888764;28;20221;-81
2022/03/31 06:15:54;;;;;;;17.67;15.80;;;;;;;11.16;55.87;96813.66;6886358;28;20231;-84
2022/03/31 06:19:15;;;;;;;19.90;16.27;;;;;;;11.56;55.05;96814.78;6887531;28;20230;-81
2022/03/31 06:22:37;;;;;;;16.13;13.90;;;;;;;12.04;53.46;96784.03;6887164;28;20263;-81
2022/03/31 06:25:59;;;;;;;17.70;14.93;;;;;;;12.13;53.34;96818.41;6884932;28;20240;-78
2022/03/31 06:29:22;;;;;;;19.73;16.43;;;;;;;12.05;53.76;96813.47;6887398;28;20324;-81
2022/03/31 06:32:44;;;;;;;20.87;17.57;;;;;;;12.10;51.99;96807.31;6890336;28;20207;-80
2022/03/31 06:36:06;;;;;;;18.47;15.70;;;;;;;11.87;53.55;96808.50;6886522;28;20785;-79
2022/03/31 06:39:27;;;;;;;18.03;15.67;;;;;;;10.96;56.03;96810.75;6892272;28;20221;-80
2022/03/31 06:42:50;;;;;;;20.23;16.53;;;;;;;11.15;55.73;96780.47;6890932;28;20217;-80
2022/03/31 06:46:14;;;;;;;19.43;16.07;;;;;;;11.96;53.36;96811.53;6902652;28;20212;-80
2022/03/31 06:49:36;;;;;;;21.87;17.43;;;;;;;11.94;53.28;96802.88;6914622;28;20227;-80
2022/03/31 06:52:58;;;;;;;21.60;17.27;;;;;;;11.98;52.19;96812.91;6914832;28;20230;-80
2022/03/31 06:56:20;;;;;;;24.63;17.40;;;;;;;12.24;52.89;96800.34;6915953;28;20327;-80
2022/03/31 06:59:41;;;;;;;20.03;16.10;;;;;;;12.38;52.68;96809.56;6916144;28;20238;-80
2022/03/31 07:03:04;;;;;;;20.10;16.23;;;;;;;12.33;53.09;96799.56;6915436;28;20342;-80
2022/03/31 07:06:26;;;;;;;22.90;17.63;;;;;;;11.72;54.25;96792.25;6915936;28;20271;-80
2022/03/31 07:09:47;;;;;;;24.23;18.03;;;;;;;11.57;55.09;96802.91;6917124;28;20228;-80
2022/03/31 07:13:09;;;;;;;24.97;18.17;;;;;;;12.18;54.09;96783.31;6916229;28;20363;-80
2022/03/31 07:16:31;;;;;;;24.30;18.40;;;;;;;12.15;53.77;96781.13;6909208;28;20231;-81
2022/03/31 07:19:54;;;;;;;23.47;17.77;;;;;;;11.41;55.49;96795.78;6888959;28;20322;-80
2022/03/31 07:23:16;;;;;;;24.60;19.00;;;;;;;11.69;55.27;96789.25;6889378;28;20295;-80
2022/03/31 07:26:37;;;;;;;26.20;18.73;;;;;;;12.33;54.15;96787.94;6889100;28;20737;-80
2022/03/31 07:29:59;;;;;;;26.27;19.87;;;;;;;12.17;53.60;96794.38;6889828;28;20879;-80
2022/03/31 07:33:21;;;;;;;23.87;17.53;;;;;;;12.54;52.27;96782.34;6889785;28;20285;-80
2022/03/31 07:36:44;;;;;;;25.40;18.40;;;;;;;12.31;52.71;96780.09;6917161;28;20247;-80
2022/03/31 07:40:06;;;;;;;25.33;18.33;;;;;;;12.48;52.82;96742.03;6898423;28;20701;-80
2022/03/31 07:43:28;;;;;;;22.90;17.50;;;;;;;13.07;51.05;96772.97;6893731;28;20235;-80
2022/03/31 07:46:51;;;;;;;26.37;18.70;;;;;;;12.77;52.18;96773.75;6893510;28;20668;-79
2022/03/31 07:50:15;;;;;;;23.80;18.23;;;;;;;12.05;53.34;96772.16;6899504;28;20280;-80
2022/03/31 07:53:38;;;;;;;26.70;18.97;;;;;;;12.28;53.82;96775.22;6920792;28;20204;-80
2022/03/31 07:57:00;;;;;;;23.60;18.00;;;;;;;12.33;53.23;96777.94;6919971;28;20236;-79
2022/03/31 08:00:23;;;;;;;27.87;18.67;;;;;;;11.71;54.56;96771.72;6921434;28;20224;-80
2022/03/31 08:03:44;;;;;;;27.90;18.43;;;;;;;11.27;56.25;96777.59;6920035;28;20219;-79
2022/03/31 08:07:06;;;;;;;26.90;19.07;;;;;;;10.79;58.79;96780.41;6920534;28;20196;-80
2022/03/31 08:10:30;;;;;;;25.57;18.57;;;;;;;11.78;55.60;96771.47;6914853;28;20651;-80
2022/03/31 08:13:51;;;;;;;27.13;20.43;;;;;;;12.02;54.78;96772.69;6893226;28;20309;-80
2022/03/31 08:17:13;;;;;;;26.80;19.50;;;;;;;12.32;54.37;96773.63;6891964;28;20228;-80
2022/03/31 08:20:35;;;;;;;27.73;20.10;;;;;;;12.40;54.46;96762.28;6892322;28;20232;-80
2022/03/31 08:23:56;;;;;;;28.60;19.83;;;;;;;12.72;53.98;96762.09;6910924;28;20234;-80
2022/03/31 08:27:19;;;;;;;23.90;19.07;;;;;;;13.09;52.40;96760.03;6918999;28;20662;-80
2022/03/31 08:30:41;;;;;;;24.70;18.60;;;;;;;12.71;53.86;96765.88;6914296;28;20797;-80
2022/03/31 08:34:03;;;;;;;26.10;18.73;;;;;;;12.62;53.73;96756.69;6892609;28;20207;-80
2022/03/31 08:37:25;;;;;;;26.07;19.67;;;;;;;12.87;53.32;96756.72;6892730;28;20244;-81
2022/03/31 08:40:46;;;;;;;26.00;18.20;;;;;;;12.61;53.90;96769.38;6893255;28;20213;-80
2022/03/31 08:44:10;;;;;;;27.70;19.67;;;;;;;12.57;53.53;96765.56;6893646;28;20208;-83
2022/03/31 08:47:32;;;;;;;25.17;19.13;;;;;;;11.92;54.78;96732.16;6892773;28;20212;-81
2022/03/31 08:50:54;;;;;;;27.90;19.53;;;;;;;12.21;54.98;96758.44;6894390;28;20213;-81
2022/03/31 08:54:15;;;;;;;23.63;18.93;;;;;;;11.99;55.13;96757.81;6895291;28;20229;-80
2022/03/31 08:57:42;;;;;;;23.23;18.30;;;;;;;12.41;54.24;96758.53;6896291;28;20235;-79
2022/03/31 09:01:05;;;;;;;27.20;18.63;;;;;;;12.63;53.92;96756.41;6895447;28;20261;-81
2022/03/31 09:04:27;;;;;;;24.80;18.67;;;;;;;12.54;54.09;96751.78;6895350;28;20244;-80
2022/03/31 09:07:56;;;;;;;24.27;18.60;;;;;;;12.62;53.74;96754.78;6895629;28;20228;-81
2022/03/31 09:11:26;;;;;;;24.80;18.17;;;;;;;12.36;54.20;96752.28;6895504;28;20210;-81
2022/03/31 09:14:48;;;;;;;26.63;19.77;;;;;;;12.49;54.37;96752.59;6891829;28;20227;-81
2022/03/31 09:18:11;;;;;;;25.67;18.50;;;;;;;13.00;53.19;96743.53;6892035;28;20240;-80
2022/03/31 09:21:32;;;;;;;23.40;18.70;;;;;;;13.15;52.83;96743.50;6900718;28;20214;-81
2022/03/31 09:25:01;;;;;;;23.80;18.83;;;;;;;13.40;52.19;96742.69;6918905;28;20201;-80
2022/03/31 09:28:25;;;;;;;28.23;19.90;;;;;;;13.32;52.42;96741.31;6918230;28;20698;-80
2022/03/31 09:31:47;;;;;;;24.03;19.13;;;;;;;13.40;52.04;96738.06;6944938;28;20249;-80
2022/03/31 09:35:10;;;;;;;25.40;20.20;;;;;;;13.00;52.97;96740.81;6944192;28;20689;-81
2022/03/31 09:38:35;;;;;;;23.17;19.03;;;;;;;12.94;53.73;96738.34;6941867;28;20229;-80
2022/03/31 09:41:58;;;;;;;23.77;18.13;;;;;;;13.64;51.48;96736.38;6943401;28;20764;-80
2022/03/31 09:45:20;;;;;;;26.57;19.97;;;;;;;13.05;52.54;96738.09;6943617;28;20664;-79
2022/03/31 09:48:43;;;;;;;25.37;19.47;;;;;;;13.34;52.15;96731.03;6942359;28;20230;-79
2022/03/31 09:52:08;;;;;;;23.93;18.43;;;;;;;13.31;52.00;96720.78;6944245;28;20360;-80
2022/03/31 09:55:29;;;;;;;23.50;19.37;;;;;;;13.21;51.73;96728.09;6943711;28;20213;-80
2022/03/31 09:58:53;;;;;;;27.07;19.43;;;;;;;12.97;53.13;96727.81;6942440;28;20258;-80
2022/03/31 10:02:16;;;;;;;24.63;18.93;;;;;;;13.06;52.23;96722.69;6925589;28;20230;-80
2022/03/31 10:05:39;;;;;;;22.87;17.77;;;;;;;13.67;52.14;96730.44;6915118;28;20223;-78
2022/03/31 10:09:03;;;;;;;24.37;18.80;;;;;;;14.10;51.41;96705.34;6915245;28;20230;-79
2022/03/31 10:12:31;;;;;;;22.37;17.53;;;;;;;14.52;49.38;96711.13;6916185;28;20242;-82
2022/03/31 10:15:57;;;;;;;23.07;19.10;;;;;;;12.82;53.94;96718.84;6915986;28;20201;-82
2022/03/31 10:19:30;;;;;;;23.50;17.50;;;;;;;14.09;50.98;96698.31;6916527;28;20297;-81
2022/03/31 10:26:37;;;;;;;24.37;17.77;;;;;;;14.59;49.79;96691.84;6889550;28;20277;-81
2022/03/31 10:30:09;;;;;;;27.43;18.77;;;;;;;14.10;50.44;96653.09;6890657;28;20727;-82
2022/03/31 10:33:32;;;;;;;21.93;18.10;;;;;;;14.59;51.35;96687.25;6893236;28;20889;-81
2022/03/31 10:36:54;;;;;;;21.87;17.73;;;;;;;14.75;50.08;96687.94;6889405;28;20213;-80
2022/03/31 10:40:29;;;;;;;22.60;17.07;;;;;;;14.29;50.95;96690.13;6889286;28;20275;-81
2022/03/31 10:43:53;;;;;;;23.03;17.87;;;;;;;14.83;51.08;96692.75;6889844;28;20237;-81
2022/03/31 10:47:15;;;;;;;20.93;17.57;;;;;;;15.25;48.99;96682.09;6888760;28;20215;-79
2022/03/31 10:50:37;;;;;;;26.93;18.50;;;;;;;15.51;48.46;96692.44;6915186;28;20237;-81
2022/03/31 10:53:59;;;;;;;18.53;16.47;;;;;;;15.69;47.48;96666.47;6919554;28;20214;-80
2022/03/31 10:57:21;;;;;;;22.33;17.47;;;;;;;14.93;49.22;96681.84;6919335;28;20223;-81
2022/03/31 11:00:44;;;;;;;21.70;17.10;;;;;;;15.29;48.92;96681.22;6920265;28;20296;-80
2022/03/31 11:04:08;;;;;;;21.37;16.97;;;;;;;15.33;49.38;96684.22;6918732;28;20250;-81
2022/03/31 11:07:30;;;;;;;22.57;17.93;;;;;;;15.06;49.38;96675.75;6918197;28;20200;-81
2022/03/31 11:10:53;;;;;;;21.07;15.47;;;;;;;14.96;49.65;96676.66;6919482;28;20214;-81
2022/03/31 11:14:17;;;;;;;19.97;16.10;;;;;;;14.23;51.23;96668.75;6921763;28;20239;-81
2022/03/31 11:17:41;;;;;;;21.63;16.40;;;;;;;14.70;50.58;96666.28;6917652;28;20326;-81
2022/03/31 11:21:04;;;;;;;19.97;16.70;;;;;;;15.13;49.57;96665.38;6917361;28;20203;-80
2022/03/31 11:24:26;;;;;;;19.83;16.10;;;;;;;15.53;49.15;96659.56;6922482;28;20222;-81
2022/03/31 11:27:48;;;;;;;20.57;15.70;;;;;;;16.08;47.18;96658.91;6922717;28;20226;-81
2022/03/31 11:31:13;;;;;;;20.33;16.93;;;;;;;15.60;48.34;96652.69;6922981;28;20295;-80
2022/03/31 11:34:36;;;;;;;20.27;15.83;;;;;;;15.69;47.24;96645.53;6923465;28;20648;-81
2022/03/31 11:38:00;;;;;;;19.20;16.20;;;;;;;15.55;48.34;96650.03;6922518;28;20238;-81
2022/03/31 11:41:21;;;;;;;19.07;14.50;;;;;;;16.34;46.68;96646.59;6922372;28;20204;-82
2022/03/31 11:44:43;;;;;;;20.57;15.23;;;;;;;15.97;46.81;96641.09;6922727;28;20582;-81
2022/03/31 11:48:06;;;;;;;20.83;16.97;;;;;;;16.07;47.11;96635.53;6921616;28;20230;-82
2022/03/31 11:51:29;;;;;;;19.80;16.10;;;;;;;16.38;46.24;96639.44;6922453;28;20207;-81
2022/03/31 11:54:51;;;;;;;20.90;16.47;;;;;;;16.47;47.23;96635.00;6925139;28;20571;-82
2022/03/31 11:58:12;;;;;;;17.20;14.87;;;;;;;16.58;46.95;96623.66;6921660;28;20323;-80
2022/03/31 12:01:37;;;;;;;20.63;15.70;;;;;;;15.99;46.35;96628.06;6921233;28;20208;-80
2022/03/31 12:04:58;;;;;;;19.87;15.80;;;;;;;16.80;46.56;96610.25;6917236;28;20230;-80
2022/03/31 12:08:21;;;;;;;18.83;15.30;;;;;;;16.21;47.22;96610.06;6917728;28;20235;-81
2022/03/31 12:11:43;;;;;;;18.40;15.03;;;;;;;15.96;46.85;96585.13;6916346;28;20228;-81
2022/03/31 12:15:05;;;;;;;18.53;15.03;;;;;;;15.35;48.71;96606.81;6920220;28;20200;-80
2022/03/31 12:18:30;;;;;;;21.37;15.30;;;;;;;16.03;47.18;96608.13;6918914;28;20358;-81
2022/03/31 12:21:53;;;;;;;18.53;15.50;;;;;;;16.55;45.84;96602.50;6919327;28;20203;-80
2022/03/31 12:25:26;;;;;;;18.63;15.33;;;;;;;15.76;47.71;96599.78;6911004;28;20257;-80
2022/03/31 12:28:49;;;;;;;18.63;15.03;;;;;;;17.00;46.31;96584.63;6920428;28;20313;-80
2022/03/31 12:32:12;;;;;;;18.97;15.67;;;;;;;16.74;45.09;96580.72;6919128;28;20294;-80
2022/03/31 12:35:34;;;;;;;19.10;15.73;;;;;;;15.28;49.09;96564.78;6908161;28;20242;-81
2022/03/31 12:38:56;;;;;;;17.77;15.10;;;;;;;15.73;47.33;96584.09;6918853;28;20241;-81
2022/03/31 12:42:19;;;;;;;17.30;14.17;;;;;;;16.00;46.22;96507.34;6915066;28;20648;-80
2022/03/31 12:45:41;;;;;;;18.60;15.70;;;;;;;15.45;49.28;96578.75;6918665;28;20214;-81
2022/03/31 12:49:06;;;;;;;19.40;15.60;;;;;;;16.57;46.84;96586.69;6917674;28;20224;-81
2022/03/31 12:52:28;;;;;;;18.17;14.73;;;;;;;16.41;46.05;96568.19;6911588;28;20219;-81
2022/03/31 12:55:51;;;;;;;21.37;15.67;;;;;;;16.09;46.73;96565.38;6918935;28;20672;-81
2022/03/31 12:59:17;;;;;;;17.23;14.53;;;;;;;16.42;46.09;96535.28;6918123;28;20278;-81
2022/03/31 13:02:40;;;;;;;16.60;14.00;;;;;;;17.17;44.93;96554.91;6919967;28;20711;-81
2022/03/31 13:06:03;;;;;;;17.90;14.50;;;;;;;16.99;45.12;96553.84;6919889;28;20657;-81
2022/03/31 13:09:25;;;;;;;18.20;14.07;;;;;;;16.82;44.57;96544.66;6919450;28;20688;-81
2022/03/31 13:12:47;;;;;;;15.00;13.43;;;;;;;17.33;44.95;96548.06;6918766;28;20220;-81
2022/03/31 13:16:11;;;;;;;14.43;12.27;;;;;;;17.06;44.28;96554.28;6918475;28;20200;-79
2022/03/31 13:19:33;;;;;;;15.47;12.90;;;;;;;17.03;44.85;96556.78;6918987;28;20597;-80
2022/03/31 13:22:54;;;;;;;18.13;13.83;;;;;;;16.75;45.63;96553.19;6919713;28;20561;-80
2022/03/31 13:26:17;;;;;;;19.33;14.43;;;;;;;16.85;45.29;96555.75;6918347;28;20271;-80
2022/03/31 13:29:39;;;;;;;19.93;15.73;;;;;;;17.08;45.05;96551.25;6912458;28;20227;-80
2022/03/31 13:33:02;;;;;;;18.60;14.43;;;;;;;16.45;46.38;96550.97;6918618;28;20229;-80
2022/03/31 13:36:23;;;;;;;20.90;15.47;;;;;;;16.63;46.81;96539.25;6917227;28;20206;-80
2022/03/31 13:39:45;;;;;;;16.53;14.07;;;;;;;16.69;45.76;96535.34;6901846;28;20238;-81
2022/03/31 13:43:07;;;;;;;19.70;14.77;;;;;;;16.53;46.46;96542.16;6917434;28;20211;-81
2022/03/31 13:46:29;;;;;;;17.00;13.87;;;;;;;17.02;45.56;96539.66;6918102;28;20298;-80
2022/03/31 13:49:51;;;;;;;20.37;16.10;;;;;;;16.92;45.37;96537.09;6919173;28;20311;-80
2022/03/31 13:56:53;;;;;;;25.03;19.37;;;;;;;16.37;46.61;96532.59;6919361;28;20188;-80
2022/03/31 14:03:56;;;;;;;21.13;17.03;;;;;;;15.82;47.63;96546.22;6917948;28;20637;-80
2022/03/31 14:07:19;;;;;;;23.80;17.33;;;;;;;15.95;47.70;96540.03;6904721;28;20212;-80
2022/03/31 14:10:41;;;;;;;17.77;15.10;;;;;;;15.97;48.09;96535.09;6890784;28;20283;-80
2022/03/31 14:14:04;;;;;;;23.13;16.47;;;;;;;16.40;48.04;96529.31;6890748;28;20244;-80
2022/03/31 14:17:26;;;;;;;18.87;15.33;;;;;;;16.55;48.70;96533.69;6891253;28;20218;-80
2022/03/31 14:20:48;;;;;;;21.23;16.80;;;;;;;15.99;48.26;96501.09;6891932;28;20742;-80
2022/03/31 14:24:12;;;;;;;20.07;15.87;;;;;;;16.42;48.86;96529.84;6894299;28;20622;-81
2022/03/31 14:27:33;;;;;;;20.40;16.33;;;;;;;16.48;48.12;96516.94;6933292;28;20257;-81
2022/03/31 14:30:55;;;;;;;21.60;16.67;;;;;;;16.16;49.45;96527.78;6942831;28;20256;-79
2022/03/31 14:34:17;;;;;;;21.73;17.20;;;;;;;16.24;50.11;96532.53;6942415;28;20208;-80
2022/03/31 14:37:39;;;;;;;20.57;17.10;;;;;;;16.31;49.94;96519.38;6941821;28;20234;-79
2022/03/31 14:41:09;;;;;;;22.73;18.20;;;;;;;16.07;49.89;96511.31;6942462;28;20255;-79
2022/03/31 14:44:32;;;;;;;24.43;17.97;;;;;;;16.26;49.03;96516.72;6915045;28;20254;-80
2022/03/31 14:47:54;;;;;;;23.83;19.67;;;;;;;15.91;50.27;96523.53;6917264;28;20225;-80
2022/03/31 14:51:16;;;;;;;24.33;18.17;;;;;;;16.00;49.96;96494.59;6920501;28;20672;-79
2022/03/31 14:54:37;;;;;;;24.07;16.53;;;;;;;15.97;49.62;96522.34;6919835;28;20216;-79
2022/03/31 14:58:00;;;;;;;27.50;18.97;;;;;;;15.71;50.80;96515.66;6946265;28;20265;-79
2022/03/31 15:01:23;;;;;;;26.83;19.93;;;;;;;15.91;51.77;96525.41;6946091;28;20599;-79
2022/03/31 15:04:45;;;;;;;25.60;19.40;;;;;;;15.87;52.23;96518.97;6946553;28;20247;-80
2022/03/31 15:08:06;;;;;;;25.90;18.47;;;;;;;15.38;52.47;96521.25;6925605;28;20697;-79
2022/03/31 15:15:10;;;;;;;23.40;19.10;;;;;;;15.57;51.08;96524.81;6904617;28;20204;-79
2022/03/31 15:18:31;;;;;;;21.63;18.13;;;;;;;15.90;50.59;96535.50;6913446;28;20228;-79
2022/03/31 15:21:53;;;;;;;25.63;17.47;;;;;;;15.60;51.60;96516.06;6916593;28;20220;-79
2022/03/31 15:25:15;;;;;;;22.37;17.77;;;;;;;15.79;51.28;96528.59;6918663;28;20286;-79
2022/03/31 15:28:36;;;;;;;23.50;17.97;;;;;;;15.41;51.40;96507.94;6917449;28;20220;-79
2022/03/31 15:31:59;;;;;;;23.57;17.73;;;;;;;15.46;51.71;96521.41;6918666;28;20216;-79
2022/03/31 15:35:21;;;;;;;22.70;18.23;;;;;;;15.52;50.97;96524.88;6918536;28;20204;-79
2022/03/31 15:38:43;;;;;;;24.53;19.40;;;;;;;15.23;51.79;96529.56;6918612;28;20328;-79
2022/03/31 15:42:04;;;;;;;29.60;23.93;;;;;;;15.18;52.41;96522.28;6918870;28;20634;-79
2022/03/31 15:45:26;;;;;;;27.57;20.03;;;;;;;15.30;52.34;96524.59;6918498;28;20239;-79
2022/03/31 15:48:49;;;;;;;27.10;21.30;;;;;;;15.43;51.63;96522.00;6918165;28;20890;-79